Time;durP1;ratioP1;P1;durP2;ratioP2;P2;SDS_P1;SDS_P2;PMS_P1;PMS_P2;Temp;Humidity;BMP_temperature;BMP_pressure;BME280_temperature;BME280_humidity;BME280_pressure;Samples;Min_cycle;Max_cycle;Signal;HPM_P1;HPM_P2
2024/03/06 00:02:16;;;;;;;;;;;;;;;;;;;;;
2024/03/06 00:04:43;;;;;;;22.30;9.90;;;4.80;99.90;;;3.38;100.00;101701.63;4904017;28;20320;-82
2024/03/06 00:07:09;;;;;;;18.00;9.50;;;4.80;99.90;;;3.41;100.00;101708.56;4897013;28;22665;-82
2024/03/06 00:09:42;;;;;;;20.45;9.60;;;4.80;99.90;;;3.41;100.00;101706.84;4883432;28;20041;-82
2024/03/06 00:12:08;;;;;;;19.75;9.45;;;4.80;99.90;;;3.41;100.00;101706.84;4905509;28;20027;-83
2024/03/06 00:14:36;;;;;;;19.45;9.73;;;4.80;99.90;;;3.43;100.00;101707.69;4878401;28;20467;-81
2024/03/06 00:17:09;;;;;;;27.33;9.88;;;4.80;99.90;;;3.46;100.00;101707.72;4908217;28;20030;-82
2024/03/06 00:19:39;;;;;;;21.90;10.10;;;4.90;99.90;;;3.51;100.00;101718.09;4875873;28;20107;-83
2024/03/06 00:22:13;;;;;;;19.77;8.48;;;;;;;3.53;100.00;101710.31;4911577;28;20206;-83
2024/03/06 00:24:39;;;;;;;15.02;8.45;;;4.90;99.90;;;3.57;100.00;101701.63;4872351;28;20594;-83
2024/03/06 00:27:09;;;;;;;18.40;9.27;;;5.00;99.90;;;3.59;100.00;101711.16;4888104;28;20039;-83
2024/03/06 00:29:41;;;;;;;17.83;9.18;;;;;;;3.62;100.00;101707.66;4844754;28;20044;-83
2024/03/06 00:32:10;;;;;;;18.02;9.70;;;5.00;99.90;;;3.66;100.00;101728.50;4880653;28;20033;-83
2024/03/06 00:34:35;;;;;;;22.25;9.65;;;5.00;99.90;;;3.67;100.00;101734.56;4890761;28;20051;-83
2024/03/06 00:37:01;;;;;;;20.38;9.32;;;5.00;99.90;;;3.67;100.00;101731.97;4909195;28;20118;-82
2024/03/06 00:39:33;;;;;;;17.35;9.13;;;5.10;99.90;;;3.66;100.00;101728.50;4881866;28;20070;-82
2024/03/06 00:41:59;;;;;;;18.90;8.25;;;5.00;99.90;;;3.68;100.00;101745.00;4887885;28;20128;-82
2024/03/06 00:44:24;;;;;;;20.25;8.93;;;5.00;99.90;;;3.65;100.00;101744.13;4921030;28;20515;-83
2024/03/06 00:46:50;;;;;;;19.42;10.07;;;5.00;99.90;;;3.65;100.00;101749.31;4896982;28;20098;-82
2024/03/06 00:49:16;;;;;;;16.77;9.07;;;5.00;99.90;;;3.63;100.00;101744.16;4864287;28;20528;-82
2024/03/06 00:51:42;;;;;;;18.52;9.18;;;5.00;99.90;;;3.67;100.00;101750.19;4901298;28;20067;-82
2024/03/06 00:54:17;;;;;;;17.48;8.90;;;5.00;99.90;;;3.68;100.00;101751.94;4850394;29;20028;-83
2024/03/06 00:56:43;;;;;;;15.68;8.90;;;5.00;99.90;;;3.68;100.00;101754.56;4858557;29;20415;-82
2024/03/06 00:59:08;;;;;;;15.60;9.05;;;5.00;99.90;;;3.68;100.00;101751.94;4842310;28;20039;-84
2024/03/06 01:01:35;;;;;;;15.73;8.88;;;5.00;99.90;;;3.69;100.00;101756.28;4929711;28;20038;-83
2024/03/06 01:04:10;;;;;;;18.05;10.20;;;5.10;99.90;;;3.73;100.00;101763.22;4877461;28;20035;-82
2024/03/06 01:06:38;;;;;;;22.17;11.50;;;5.10;99.90;;;3.73;100.00;101764.97;4923696;28;20052;-83
2024/03/06 01:09:12;;;;;;;16.95;9.73;;;5.10;99.90;;;3.74;100.00;101769.28;4887162;28;20070;-82
2024/03/06 01:11:38;;;;;;;22.33;9.70;;;5.10;99.90;;;3.71;100.00;101767.56;4893656;28;20097;-81
2024/03/06 01:14:04;;;;;;;18.90;8.98;;;5.10;99.90;;;3.70;100.00;101773.66;4915426;28;20047;-82
2024/03/06 01:16:30;;;;;;;21.27;8.80;;;5.10;99.90;;;3.69;100.00;101779.72;4872157;28;20062;-82
2024/03/06 01:19:01;;;;;;;16.73;9.23;;;5.10;99.90;;;3.70;100.00;101778.88;4951716;28;20038;-82
2024/03/06 01:21:28;;;;;;;16.35;9.57;;;5.10;99.90;;;3.69;100.00;101778.00;4930499;28;20050;-82
2024/03/06 01:23:54;;;;;;;15.18;9.18;;;5.10;99.90;;;3.67;100.00;101777.13;4939402;28;20038;-82
2024/03/06 01:26:20;;;;;;;18.77;9.98;;;5.00;99.90;;;3.63;100.00;101777.16;4937569;28;20116;-82
2024/03/06 01:28:58;;;;;;;15.18;9.82;;;;;;;3.63;100.00;101784.97;4926978;28;20042;-81
2024/03/06 01:31:24;;;;;;;18.50;9.77;;;5.00;99.90;;;3.60;100.00;101790.16;4941204;28;20117;-83
2024/03/06 01:33:50;;;;;;;18.02;9.50;;;5.00;99.90;;;3.63;100.00;101790.16;4912033;28;20050;-82
2024/03/06 01:36:25;;;;;;;20.80;10.52;;;5.00;99.90;;;3.62;100.00;101793.63;4918729;28;20034;-83
2024/03/06 01:38:51;;;;;;;16.90;9.65;;;5.00;99.90;;;3.60;100.00;101793.63;4870548;28;20046;-82
2024/03/06 01:41:17;;;;;;;19.58;10.02;;;5.00;99.90;;;3.60;100.00;101796.22;4884009;28;20094;-83
2024/03/06 01:43:49;;;;;;;24.17;10.50;;;5.00;99.90;;;3.61;100.00;101797.13;4916957;28;20051;-82
2024/03/06 01:46:14;;;;;;;19.92;10.32;;;5.00;99.90;;;3.61;100.00;101797.97;4950243;28;20246;-81
2024/03/06 01:48:42;;;;;;;25.60;12.95;;;5.00;99.90;;;3.62;100.00;101804.03;4915405;28;20051;-83
2024/03/06 01:51:08;;;;;;;44.22;20.35;;;5.00;99.90;;;3.62;100.00;101804.03;4895495;28;20054;-82
2024/03/06 01:53:42;;;;;;;39.35;19.23;;;5.00;99.90;;;3.60;100.00;101809.25;4909955;28;20040;-83
2024/03/06 01:56:11;;;;;;;22.90;10.35;;;5.00;99.90;;;3.61;100.00;101808.38;4975464;28;20452;-83
2024/03/06 01:58:48;;;;;;;20.52;10.50;;;5.00;99.90;;;3.61;100.00;101807.53;4914694;28;20046;-83
2024/03/06 02:01:17;;;;;;;25.83;11.27;;;5.00;99.90;;;3.61;100.00;101812.75;4907516;28;20455;-83
2024/03/06 02:03:51;;;;;;;31.95;15.25;;;5.00;99.90;;;3.61;100.00;101820.56;4906874;28;20114;-81
2024/03/06 02:06:19;;;;;;;26.75;13.57;;;5.00;99.90;;;3.61;100.00;101820.56;4921489;28;20035;-82
2024/03/06 02:08:46;;;;;;;25.98;12.15;;;5.00;99.90;;;3.61;100.00;101812.75;4932073;28;20062;-82
2024/03/06 02:11:19;;;;;;;18.98;10.25;;;5.00;99.90;;;3.62;100.00;101822.28;4878246;28;20039;-83
2024/03/06 02:13:45;;;;;;;23.85;10.18;;;5.00;99.90;;;3.60;100.00;101819.66;4911958;28;20057;-83
2024/03/06 02:16:11;;;;;;;25.63;12.43;;;;;;;3.60;100.00;101811.00;4905040;28;20038;-82
2024/03/06 02:18:37;;;;;;;34.92;14.75;;;5.00;99.90;;;3.60;100.00;101809.25;4923665;28;20045;-83
2024/03/06 02:21:09;;;;;;;105.60;40.35;;;4.90;99.90;;;3.61;100.00;101813.59;4899211;28;20061;-82
2024/03/06 02:23:37;;;;;;;126.40;45.50;;;5.00;99.90;;;3.62;100.00;101809.25;4924292;28;20042;-83
2024/03/06 02:26:13;;;;;;;;;;;;;;;;;;;;;
2024/03/06 02:28:39;;;;;;;42.33;17.95;;;4.90;99.90;;;3.50;100.00;101791.91;4907255;28;20699;-83
2024/03/06 02:31:06;;;;;;;40.40;17.52;;;4.90;99.90;;;3.47;100.00;101800.56;4904007;28;20685;-82
2024/03/06 02:33:34;;;;;;;27.27;14.43;;;4.90;99.90;;;3.46;100.00;101813.59;4922407;28;20027;-81
2024/03/06 02:36:08;;;;;;;31.48;15.98;;;4.80;99.90;;;3.50;100.00;101817.94;4900599;28;20061;-81
2024/03/06 02:38:45;;;;;;;;;;;;;;;;;;;;;
2024/03/06 02:41:13;;;;;;;39.45;16.33;;;4.80;99.90;;;3.46;100.00;101819.66;4891610;28;20042;-82
2024/03/06 02:43:39;;;;;;;34.65;14.68;;;4.90;99.90;;;3.47;100.00;101817.94;4912903;28;20519;-83
2024/03/06 02:46:05;;;;;;;28.80;13.95;;;4.80;99.90;;;3.46;100.00;101824.88;4911799;28;20023;-82
2024/03/06 02:48:40;;;;;;;23.65;12.68;;;4.90;99.90;;;3.48;100.00;101830.97;4901735;28;20023;-82
2024/03/06 02:51:06;;;;;;;23.70;11.60;;;4.80;99.90;;;3.49;100.00;101829.22;4904704;28;20034;-83
2024/03/06 02:53:32;;;;;;;22.67;10.15;;;4.90;99.90;;;3.46;100.00;101830.09;4926167;28;20072;-81
2024/03/06 02:56:09;;;;;;;23.98;10.88;;;4.80;99.90;;;3.45;100.00;101832.69;4909705;28;20117;-83
2024/03/06 02:58:35;;;;;;;18.52;10.30;;;4.80;99.90;;;3.44;100.00;101838.78;4908297;28;20034;-83
2024/03/06 03:01:02;;;;;;;21.27;10.85;;;4.80;99.90;;;3.41;100.00;101833.53;4906448;28;20043;-81
2024/03/06 03:03:32;;;;;;;16.15;9.90;;;4.80;99.90;;;3.41;100.00;101833.53;4903336;28;20034;-82
2024/03/06 03:05:59;;;;;;;19.35;11.25;;;4.80;99.90;;;3.44;100.00;101836.16;4929877;28;20038;-85
2024/03/06 03:08:25;;;;;;;19.58;9.32;;;4.80;99.90;;;3.42;100.00;101828.34;4913984;28;20038;-82
2024/03/06 03:10:51;;;;;;;17.83;9.82;;;4.80;99.90;;;3.41;100.00;101828.34;4933903;28;20030;-82
2024/03/06 03:13:24;;;;;;;22.00;10.48;;;5.30;99.90;;;3.43;100.00;101824.84;4940287;28;20042;-82
2024/03/06 03:15:51;;;;;;;19.80;10.88;;;4.80;99.90;;;3.43;100.00;101832.66;4963815;28;20038;-82
2024/03/06 03:18:18;;;;;;;19.17;10.05;;;4.80;99.90;;;3.43;100.00;101832.66;4940668;28;20042;-83
2024/03/06 03:20:43;;;;;;;19.58;10.70;;;4.80;99.90;;;3.37;100.00;101824.88;4916840;28;22816;-82
2024/03/06 03:23:11;;;;;;;23.35;10.35;;;4.80;99.90;;;3.40;100.00;101837.88;4894102;28;20516;-82
2024/03/06 03:25:43;;;;;;;19.83;9.82;;;4.80;99.90;;;3.39;100.00;101832.66;4908946;28;20057;-83
2024/03/06 03:28:09;;;;;;;22.00;11.15;;;;;;;3.38;100.00;101844.84;4889249;28;20085;-83
2024/03/06 03:30:38;;;;;;;23.35;13.02;;;4.80;99.90;;;3.34;100.00;101850.91;4938023;28;20073;-82
2024/03/06 03:33:12;;;;;;;28.70;13.63;;;4.80;99.90;;;3.34;100.00;101850.91;4874536;28;20038;-82
2024/03/06 03:35:38;;;;;;;24.88;12.38;;;4.70;99.90;;;3.34;100.00;101858.72;4888427;28;20411;-83
2024/03/06 03:38:18;;;;;;;24.35;12.15;;;4.70;99.90;;;3.33;100.00;101853.53;4883486;28;20044;-83
2024/03/06 03:40:53;;;;;;;25.15;12.20;;;;;;;3.33;100.00;101854.38;4883067;28;20043;-82
2024/03/06 03:43:20;;;;;;;27.75;14.50;;;4.70;99.90;;;3.33;100.00;101864.78;4901951;28;20548;-83
2024/03/06 03:45:47;;;;;;;27.52;13.13;;;4.70;99.90;;;3.32;100.00;101870.00;4942234;28;20069;-83
2024/03/06 03:48:12;;;;;;;22.85;12.10;;;4.70;99.90;;;3.32;100.00;101870.84;4933846;28;20113;-81
2024/03/06 03:50:38;;;;;;;27.60;11.95;;;4.70;99.90;;;3.32;100.00;101872.59;4893151;28;20038;-83
2024/03/06 03:53:23;;;;;;;;;;;;;;;;;;;;;
2024/03/06 03:55:50;;;;;;;27.30;11.35;;;4.70;99.90;;;3.32;100.00;101870.84;4888133;28;20027;-81
2024/03/06 03:58:19;;;;;;;23.15;11.43;;;4.70;99.90;;;3.32;100.00;101870.00;4860846;28;20038;-83
2024/03/06 04:00:52;;;;;;;24.35;11.68;;;;;;;3.34;100.00;101870.88;4886305;28;20038;-83
2024/03/06 04:03:22;;;;;;;20.65;11.55;;;4.70;99.90;;;3.34;100.00;101876.06;4929611;28;20043;-83
2024/03/06 04:05:50;;;;;;;21.98;11.93;;;4.70;99.90;;;3.29;100.00;101874.31;4893401;28;20038;-83
2024/03/06 04:08:21;;;;;;;27.73;13.25;;;4.70;99.90;;;3.27;100.00;101876.06;4870390;28;20046;-83
2024/03/06 04:10:47;;;;;;;24.98;12.63;;;5.20;99.90;;;3.28;100.00;101876.91;4929653;28;20049;-82
2024/03/06 04:13:15;;;;;;;26.45;11.32;;;4.70;99.90;;;3.31;100.00;101881.28;4916085;28;20040;-81
2024/03/06 04:15:41;;;;;;;25.42;11.85;;;4.70;99.90;;;3.31;100.00;101882.16;4890062;28;20102;-82
2024/03/06 04:18:19;;;;;;;29.40;11.32;;;4.70;99.90;;;3.26;100.00;101874.34;4909284;28;20053;-83
2024/03/06 04:20:45;;;;;;;20.08;10.02;;;4.70;99.90;;;3.25;100.00;101884.72;4896362;28;20092;-83
2024/03/06 04:23:20;;;;;;;19.23;10.05;;;4.60;99.90;;;3.20;100.00;101878.66;4921412;28;20419;-81
2024/03/06 04:25:46;;;;;;;22.40;10.63;;;4.50;99.90;;;3.11;100.00;101884.72;4904996;28;20049;-82
2024/03/06 04:28:12;;;;;;;22.35;10.82;;;4.50;99.90;;;3.06;100.00;101892.47;4915458;28;20050;-81
2024/03/06 04:30:38;;;;;;;20.92;10.32;;;4.40;99.90;;;2.98;100.00;101889.00;4947162;28;20077;-83
2024/03/06 04:33:13;;;;;;;23.75;10.23;;;4.40;99.90;;;2.91;100.00;101888.97;4924216;28;20034;-82
2024/03/06 04:35:39;;;;;;;15.43;9.33;;;4.30;99.90;;;2.82;100.00;101884.59;4895985;28;20084;-83
2024/03/06 04:38:06;;;;;;;18.15;9.02;;;4.20;99.90;;;2.76;100.00;101890.63;4915633;28;20546;-83
2024/03/06 04:40:41;;;;;;;20.08;10.38;;;4.10;99.90;;;2.65;100.00;101893.19;4895309;28;20053;-82
2024/03/06 04:43:07;;;;;;;23.52;10.57;;;4.00;99.90;;;2.55;100.00;101890.53;4924121;28;20035;-83
2024/03/06 04:45:33;;;;;;;21.88;11.07;;;4.00;99.90;;;2.52;100.00;101894.00;4854764;28;20525;-83
2024/03/06 04:48:08;;;;;;;21.73;11.48;;;;;;;2.48;100.00;101894.81;4854526;28;20126;-84
2024/03/06 04:50:37;;;;;;;20.47;10.50;;;3.90;99.90;;;2.43;100.00;101892.22;4859893;28;20047;-82
2024/03/06 04:53:10;;;;;;;23.58;9.98;;;3.90;99.90;;;2.38;100.00;101901.72;4878929;28;20066;-82
2024/03/06 04:55:39;;;;;;;25.77;11.20;;;3.80;99.90;;;2.31;100.00;101909.47;4957768;28;20057;-83
2024/03/06 04:58:05;;;;;;;23.38;10.90;;;3.70;99.90;;;2.25;100.00;101911.16;4906205;28;20051;-83
2024/03/06 05:00:39;;;;;;;20.80;10.60;;;3.70;99.90;;;2.20;100.00;101904.19;4860484;28;20086;-83
2024/03/06 05:03:05;;;;;;;20.90;11.05;;;3.60;99.90;;;2.15;100.00;101911.97;4912580;28;20135;-83
2024/03/06 05:05:32;;;;;;;21.00;9.82;;;3.60;99.90;;;2.05;100.00;101911.03;4915936;28;20035;-83
2024/03/06 05:08:06;;;;;;;14.25;8.20;;;;;;;1.98;100.00;101921.34;4910369;28;20069;-84
2024/03/06 05:10:32;;;;;;;20.80;9.77;;;3.40;99.90;;;1.87;100.00;101912.59;4901703;28;20059;-83
2024/03/06 05:12:58;;;;;;;17.40;9.18;;;3.30;99.90;;;1.77;100.00;101911.66;4873542;28;20051;-82
2024/03/06 05:15:24;;;;;;;20.60;8.50;;;3.20;99.90;;;1.70;100.00;101918.50;4893428;28;20038;-84
2024/03/06 05:17:50;;;;;;;20.15;8.57;;;3.20;99.90;;;1.62;100.00;101926.25;4925867;28;20034;-83
2024/03/06 05:20:23;;;;;;;225.98;12.10;;;3.10;99.90;;;1.52;100.00;101927.00;4960657;28;20089;-84
2024/03/06 05:22:49;;;;;;;23.58;10.63;;;3.00;99.90;;;1.48;100.00;101939.94;4878079;28;20045;-83
2024/03/06 05:25:28;;;;;;;;;;;;;;;;;;;;;
2024/03/06 05:27:57;;;;;;;138.85;9.50;;;2.80;99.90;;;1.29;100.00;101942.31;4874846;28;20045;-83
2024/03/06 05:30:32;;;;;;;18.48;8.20;;;;;;;1.22;100.00;101943.13;4889996;28;20525;-82
2024/03/06 05:33:01;;;;;;;13.63;6.82;;;2.70;99.90;;;1.13;99.92;101943.03;4871930;28;20049;-83
2024/03/06 05:35:36;;;;;;;135.45;10.48;;;2.60;99.90;;;1.08;99.86;101947.25;4874601;28;20125;-82
2024/03/06 05:38:03;;;;;;;409.87;15.70;;;2.60;99.90;;;1.02;100.00;101951.53;4871377;28;20043;-82
2024/03/06 05:40:38;;;;;;;;;;;;;;;;;;;;;
2024/03/06 05:43:09;;;;;;;86.25;7.25;;;2.50;99.90;;;1.00;100.00;101968.81;4865453;28;20453;-83
2024/03/06 05:45:40;;;;;;;98.53;8.35;;;2.50;99.90;;;0.99;100.00;101967.06;4922668;28;20056;-82
2024/03/06 05:48:09;;;;;;;282.45;13.60;;;2.50;99.90;;;0.96;100.00;101968.75;4923920;28;20049;-83
2024/03/06 05:50:34;;;;;;;69.65;6.60;;;2.50;99.90;;;0.91;100.00;101978.22;4912616;28;20115;-83
2024/03/06 05:53:00;;;;;;;55.03;8.65;;;2.40;99.90;;;0.82;100.00;101973.72;4870224;28;20113;-83
2024/03/06 05:55:26;;;;;;;53.60;9.18;;;2.30;99.90;;;0.78;100.00;101978.03;4916333;28;20051;-83
2024/03/06 05:58:00;;;;;;;91.40;11.57;;;2.30;99.90;;;0.76;100.00;101979.72;4892731;28;20134;-82
2024/03/06 06:00:25;;;;;;;75.35;11.25;;;2.30;99.90;;;0.75;100.00;101983.16;4917426;28;20050;-83
2024/03/06 06:02:51;;;;;;;61.58;9.43;;;2.30;99.90;;;0.75;100.00;101982.28;4923358;28;20662;-82
2024/03/06 06:05:29;;;;;;;;;;;;;;;;;;;;;
2024/03/06 06:07:55;;;;;;;18.67;8.43;;;2.20;99.90;;;0.71;100.00;101996.06;4930416;28;20038;-84
2024/03/06 06:10:21;;;;;;;21.10;9.10;;;2.20;99.90;;;0.68;100.00;101993.44;4927375;28;20508;-84
2024/03/06 06:12:52;;;;;;;13.30;8.45;;;2.20;99.90;;;0.66;100.00;101993.41;4932417;28;20068;-84
2024/03/06 06:15:20;;;;;;;25.38;8.70;;;2.20;99.90;;;0.65;100.00;101995.97;4882187;28;20039;-84
2024/03/06 06:17:46;;;;;;;17.60;9.27;;;2.20;99.90;;;0.66;100.00;102001.19;4902210;28;20058;-83
2024/03/06 06:20:21;;;;;;;20.02;9.43;;;2.20;99.90;;;0.67;100.00;102005.53;4904250;28;20471;-82
2024/03/06 06:22:47;;;;;;;19.40;9.37;;;2.20;99.90;;;0.68;100.00;102007.25;4964096;28;20042;-83
2024/03/06 06:25:15;;;;;;;16.65;10.10;;;;;;;0.69;100.00;102009.03;4935258;28;20125;-84
2024/03/06 06:27:41;;;;;;;15.65;9.80;;;2.20;99.90;;;0.75;100.00;102018.59;4904449;28;20126;-83
2024/03/06 06:30:26;;;;;;;;;;;;;;;;;;;;;
2024/03/06 06:32:57;;;;;;;15.82;9.13;;;2.80;99.90;;;0.82;100.00;102023.00;4884244;28;20322;-83
2024/03/06 06:35:25;;;;;;;29.25;10.35;;;2.30;99.90;;;0.89;100.00;102018.81;4958252;28;20042;-83
2024/03/06 06:37:50;;;;;;;16.65;9.15;;;2.40;99.90;;;0.93;100.00;102021.47;4914580;28;20036;-83
2024/03/06 06:40:27;;;;;;;19.20;10.07;;;2.40;99.90;;;0.98;100.00;102022.38;4928975;28;20034;-85
2024/03/06 06:42:53;;;;;;;19.70;10.88;;;2.50;99.90;;;1.08;100.00;102032.88;4928378;28;20034;-84
2024/03/06 06:45:30;;;;;;;15.68;9.32;;;2.50;99.90;;;1.17;100.00;102025.22;4906085;28;20051;-85
2024/03/06 06:48:08;;;;;;;18.92;9.73;;;2.60;99.90;;;1.25;100.00;102033.97;4893917;28;20049;-84
2024/03/06 06:50:33;;;;;;;19.08;9.27;;;2.70;99.90;;;1.35;100.00;102033.22;4873298;28;20054;-84
2024/03/06 06:53:02;;;;;;;20.10;11.55;;;2.80;99.90;;;1.46;100.00;102041.16;4900574;28;20042;-85
2024/03/06 06:55:38;;;;;;;29.60;14.20;;;2.90;99.90;;;1.60;100.00;102030.94;4912004;28;20074;-83
2024/03/06 06:58:04;;;;;;;27.48;13.80;;;2.50;99.90;;;1.78;100.00;102033.72;4870050;28;20042;-83
2024/03/06 07:00:30;;;;;;;19.80;12.00;;;3.20;99.90;;;1.92;100.00;102036.44;4880011;28;20469;-85
2024/03/06 07:03:08;;;;;;;26.83;13.95;;;3.30;99.90;;;2.06;100.00;102041.81;4831698;28;20072;-84
2024/03/06 07:05:34;;;;;;;27.20;14.82;;;3.40;99.90;;;2.24;100.00;102057.56;4891772;28;20141;-83
2024/03/06 07:08:07;;;;;;;22.15;12.98;;;3.60;99.90;;;2.40;100.00;102050.78;4933401;28;20042;-85
2024/03/06 07:10:35;;;;;;;29.27;13.43;;;3.70;99.90;;;2.53;100.00;102054.34;4899880;28;20047;-83
2024/03/06 07:13:02;;;;;;;21.05;11.68;;;3.90;99.90;;;2.63;100.00;102053.53;4925455;28;20472;-84
2024/03/06 07:15:34;;;;;;;21.10;10.48;;;4.00;99.90;;;2.75;100.00;102057.13;4877952;28;20113;-85
2024/03/06 07:18:00;;;;;;;19.73;9.90;;;4.10;99.90;;;2.79;100.00;102058.88;4911548;28;20057;-85
2024/03/06 07:20:25;;;;;;;19.40;11.57;;;4.10;99.90;;;2.84;100.00;102059.78;4901806;28;20030;-85
2024/03/06 07:22:51;;;;;;;23.10;12.38;;;4.20;99.90;;;2.89;100.00;102060.66;4934202;28;20043;-84
2024/03/06 07:25:27;;;;;;;;;;;;;;;;;;;;;
2024/03/06 07:27:53;;;;;;;28.20;14.23;;;4.40;99.90;;;3.14;100.00;102071.25;4896122;28;20445;-83
2024/03/06 07:30:19;;;;;;;28.15;14.90;;;4.50;99.90;;;3.36;100.00;102080.88;4966632;28;20057;-84
2024/03/06 07:32:52;;;;;;;28.50;13.55;;;4.70;99.90;;;3.62;100.00;102082.75;4903868;28;20042;-84
2024/03/06 07:35:21;;;;;;;30.15;14.13;;;5.00;99.90;;;3.86;100.00;102090.63;4955610;28;20049;-84
2024/03/06 07:37:49;;;;;;;30.67;14.50;;;5.10;99.90;;;4.08;100.00;102094.19;4932246;28;20084;-85
2024/03/06 07:40:25;;;;;;;28.40;13.55;;;5.30;99.90;;;4.23;100.00;102090.75;4851108;28;20036;-84
2024/03/06 07:42:51;;;;;;;31.25;15.15;;;5.50;99.90;;;4.40;100.00;102100.31;4875529;28;20081;-83
2024/03/06 07:45:30;;;;;;;34.65;15.55;;;5.70;99.90;;;4.57;100.00;102105.53;4917578;28;20044;-85
2024/03/06 07:48:05;;;;;;;26.58;15.27;;;5.90;99.90;;;4.71;100.00;102109.03;4911888;28;20039;-85
2024/03/06 07:50:31;;;;;;;36.05;16.13;;;;;;;4.80;100.00;102110.75;4890187;28;20050;-84
2024/03/06 07:52:59;;;;;;;35.38;17.20;;;6.10;99.90;;;4.92;100.00;102108.13;4908654;28;20042;-84
2024/03/06 07:55:32;;;;;;;43.95;17.35;;;6.20;99.90;;;5.05;100.00;102112.44;4904387;28;20068;-85
2024/03/06 07:57:59;;;;;;;43.80;18.17;;;;;;;5.20;100.00;102118.53;4877890;28;21137;-85
2024/03/06 08:00:35;;;;;;;;;;;;;;;;;;;;;
2024/03/06 08:03:35;;;;;;;;;;;;;;;;;;;;;
2024/03/06 08:08:44;;;;;;;47.78;20.52;;;6.80;99.90;;;5.62;99.34;102132.38;4967410;22;20754;-88
2024/03/06 08:15:23;;;;;;;46.60;20.20;;;7.00;99.90;;;5.59;98.10;102146.28;4879972;28;20155;-88
2024/03/06 08:19:04;;;;;;;45.20;20.55;;;7.00;99.90;;;5.58;97.96;102146.31;4854737;28;20038;-87
2024/03/06 08:21:33;;;;;;;45.00;21.52;;;7.00;99.90;;;5.63;97.50;102155.84;4763323;29;20056;-88
2024/03/06 08:24:42;;;;;;;50.05;22.27;;;7.00;99.90;;;5.73;97.66;102154.09;4763266;29;20042;-88
2024/03/06 08:27:33;;;;;;;;;;;;;;;;;;;;;
2024/03/06 08:30:21;;;;;;;50.70;22.85;;;7.30;99.90;;;6.05;97.44;102158.34;4958172;28;21529;-88
2024/03/06 08:33:32;;;;;;;51.28;24.33;;;7.40;99.90;;;6.26;96.27;102155.59;4980489;28;20038;-88
2024/03/06 08:35:58;;;;;;;50.00;24.17;;;7.50;99.90;;;6.30;95.29;102166.91;4949858;28;21219;-83
2024/03/06 08:38:31;;;;;;;59.80;25.35;;;7.60;99.90;;;6.35;95.36;102171.25;4920599;28;20118;-82
2024/03/06 08:40:57;;;;;;;50.70;24.90;;;7.60;99.90;;;6.43;94.93;102170.34;4938502;28;20050;-83
2024/03/06 08:43:23;;;;;;;56.15;25.80;;;7.70;99.90;;;6.54;93.91;102176.34;4902154;28;20079;-83
2024/03/06 08:45:48;;;;;;;57.63;25.60;;;7.80;99.90;;;6.61;93.89;102185.03;4906141;28;20035;-83
2024/03/06 08:48:14;;;;;;;69.05;28.75;;;7.80;99.90;;;6.50;92.57;102182.50;4910472;28;20043;-81
2024/03/06 08:50:50;;;;;;;71.80;30.38;;;7.80;99.90;;;6.49;91.90;102189.47;4879837;28;20560;-83
2024/03/06 08:53:16;;;;;;;;;;;7.80;99.90;;;6.22;91.17;102190.53;4918903;28;20864;-84
2024/03/06 08:55:42;;;;;;;75.80;29.42;;;7.70;99.90;;;6.45;90.74;102186.91;4908656;28;19929;-82
2024/03/06 08:58:08;;;;;;;66.72;28.83;;;7.80;99.90;;;6.47;91.31;102187.75;4898318;28;20039;-83
2024/03/06 09:00:35;;;;;;;63.47;28.17;;;7.70;99.90;;;6.23;90.65;102194.88;4934089;28;20077;-81
2024/03/06 09:03:05;;;;;;;71.38;29.48;;;7.70;99.90;;;6.32;91.00;102199.19;4906201;28;20039;-83
2024/03/06 09:05:32;;;;;;;61.95;26.73;;;7.60;99.90;;;6.21;89.97;102200.97;4902318;28;20126;-83
2024/03/06 09:07:58;;;;;;;53.15;25.15;;;7.60;99.90;;;6.23;90.21;102200.09;4910909;28;20046;-83
2024/03/06 09:10:24;;;;;;;44.70;24.10;;;7.60;99.90;;;6.22;89.64;102201.00;4896435;28;20047;-81
2024/03/06 09:12:50;;;;;;;52.83;23.92;;;7.60;99.90;;;6.31;90.30;102208.78;4905532;28;20077;-84
2024/03/06 09:15:28;;;;;;;48.88;23.42;;;7.60;99.90;;;6.14;89.87;102208.00;4986997;28;20061;-82
2024/03/06 09:17:55;;;;;;;45.58;21.83;;;7.60;99.90;;;6.11;90.15;102207.97;4991221;28;20067;-83
2024/03/06 09:20:28;;;;;;;41.00;21.92;;;7.60;99.90;;;6.16;89.85;102208.84;4979669;28;20073;-82
2024/03/06 09:22:56;;;;;;;40.72;20.25;;;7.50;99.90;;;5.91;89.84;102208.91;4999274;28;20047;-82
2024/03/06 09:25:48;;;;;;;42.70;21.33;;;7.50;99.90;;;5.79;90.78;102208.97;4980258;28;20106;-82
2024/03/06 09:28:30;;;;;;;;;;;;;;;;;;;;;
2024/03/06 09:31:42;;;;;;;34.20;18.42;;;7.10;99.90;;;5.60;90.14;102207.28;4887376;28;20049;-82
2024/03/06 09:35:22;;;;;;;;;;;;;;;;;;;;;
2024/03/06 09:38:47;;;;;;;;;;;;;;;;;;;;;
2024/03/06 09:41:51;;;;;;;;;;;;;;;;;;;;;
2024/03/06 09:44:28;;;;;;;;;;;;;;;;;;;;;
2024/03/06 09:47:31;;;;;;;34.35;16.75;;;8.40;99.90;;;7.49;87.06;102220.09;4799661;29;20607;-83
2024/03/06 09:50:44;;;;;;;28.33;15.27;;;8.70;99.90;;;7.33;85.08;102223.75;4784850;29;20095;-82
2024/03/06 09:54:06;;;;;;;;;;;;;;;;;;;;;
2024/03/06 09:57:11;;;;;;;;;;;;;;;;;;;;;
2024/03/06 10:00:01;;;;;;;23.27;13.98;;;8.80;99.90;;;7.52;82.80;102227.09;4858452;29;20052;-83
2024/03/06 10:03:12;;;;;;;28.02;15.35;;;8.90;99.90;;;7.73;82.41;102237.34;4842757;29;20037;-83
2024/03/06 10:06:20;;;;;;;;;;;;;;;;;;;;;
2024/03/06 10:09:40;;;;;;;;;;;;;;;;;;;;;
2024/03/06 10:12:50;;;;;;;22.75;13.27;;;8.80;99.90;;;7.48;82.28;102244.59;4904493;29;20598;-83
2024/03/06 10:16:14;;;;;;;;;;;;;;;;;;;;;
2024/03/06 10:20:07;;;;;;;;;;;;;;;;;;;;;
2024/03/06 10:22:43;;;;;;;;;;;;;;;;;;;;;
2024/03/06 10:25:52;;;;;;;23.73;14.38;;;8.80;99.90;;;7.56;81.19;102263.72;4856525;28;20616;-83
2024/03/06 10:28:41;;;;;;;;;;;;;;;;;;;;;
2024/03/06 10:35:54;;;;;;;24.00;14.38;;;9.00;99.90;;;7.68;81.42;102267.09;4754175;29;20116;-83
2024/03/06 10:38:34;;;;;;;24.83;15.07;;;;;;;7.81;80.55;102273.97;4734650;29;21106;-83
2024/03/06 10:41:32;;;;;;;27.05;14.57;;;;;;;7.80;80.78;102273.09;4697057;29;20034;-83
2024/03/06 10:52:16;;;;;;;;;;;;;;;;;;;;;
2024/03/06 11:09:11;;;;;;;18.20;11.32;;;10.00;99.90;;;8.72;74.32;102279.00;4999197;28;20416;-83
2024/03/06 11:12:02;;;;;;;17.08;11.65;;;9.90;99.90;;;8.58;75.47;102286.22;4946864;28;20468;-82
2024/03/06 11:15:08;;;;;;;;;;;;;;;;;;;;;
2024/03/06 11:17:39;;;;;;;18.33;11.98;;;9.70;99.90;;;8.05;74.85;102287.69;4962848;28;20610;-80
2024/03/06 11:20:21;;;;;;;;;;;;;;;;;;;;;
2024/03/06 11:23:15;;;;;;;25.30;16.73;;;9.10;99.90;;;7.12;79.83;102269.34;4927248;28;20049;-82
2024/03/06 11:26:09;;;;;;;;;;;;;;;;;;;;;
2024/03/06 11:28:56;;;;;;;29.67;17.83;;;8.50;99.90;;;6.65;83.57;102271.41;4896916;28;20744;-82
2024/03/06 11:32:14;;;;;;;;;;;;;;;;;;;;;
2024/03/06 11:38:14;;;;;;;25.77;16.58;;;8.40;99.90;;;7.09;85.48;102262.38;4938256;23;20754;-82
2024/03/06 11:48:17;;;;;;;;;;;;;;;;;;;;;
2024/03/06 11:51:05;;;;;;;27.88;17.25;;;8.30;99.90;;;6.63;84.85;102267.03;4849241;28;20711;-82
2024/03/06 11:54:27;;;;;;;;;;;;;;;;;;;;;
2024/03/06 11:57:26;;;;;;;31.27;16.80;;;8.10;99.90;;;6.69;84.88;102261.78;4776364;29;20676;-81
2024/03/06 12:00:46;;;;;;;;;;;;;;;;;;;;;
2024/03/06 12:07:33;;;;;;;;;;;;;;;;;;;;;
2024/03/06 12:12:01;;;;;;;;;;;;;;;;;;;;;
2024/03/06 12:14:19;;;;;;;25.35;16.50;;;7.90;99.90;;;6.52;85.92;102273.22;4738250;29;20044;-82
2024/03/06 12:16:59;;;;;;;26.80;16.73;;;8.00;99.90;;;6.71;85.67;102270.47;4771290;29;20110;-82
2024/03/06 12:20:14;;;;;;;;;;;;;;;;;;;;;
2024/03/06 12:23:25;;;;;;;29.70;18.13;;;8.10;99.90;;;6.49;85.25;102272.34;4730824;29;20124;-82
2024/03/06 12:26:31;;;;;;;30.05;19.02;;;8.00;99.90;;;6.29;87.15;102275.06;4724419;29;20043;-82
2024/03/06 12:29:41;;;;;;;32.97;18.65;;;7.80;99.90;;;6.17;88.38;102278.59;4746522;29;20073;-81
2024/03/06 12:32:44;;;;;;;34.45;19.77;;;7.80;99.90;;;6.28;89.30;102275.94;4748611;29;20103;-82